Tranquility — J8Y3230 — position and weather

sailwx.info

Track history (hours):
 
Tides and Currents Weather Stations Pressure Air Temp Water Temp Dewpoint Dewpoint Depression Visibility Wind Speed Wind Dir Waves Ship Positions

Tranquility

Last reported at 2018-Jun-09 19:47 UTC. Time now 2018-Jun-19 18:02 UTC.
Position N 25°29' W 080°09'.
Warning: this ship's position is 9 days out of date.

Length 40 m; draft 2.5 m.

Type: Pleasure craft. MMSI: 336377000.

Date/timePositionNaut miles runAvg speedWind from/ knotsBaromVisibWave heightAir tempDewpointWater temp
2018-Jun-09 19:47N 25°29' W 080°09'311.4
2018-Jun-09 19:30N 25°32' W 080°08'612.2
2018-Jun-09 19:00N 25°38' W 080°07'613.1
2018-Jun-09 18:30N 25°44' W 080°05'611.8
2018-Jun-09 18:01N 25°50' W 080°05'510.8
2018-Jun-09 17:30N 25°56' W 080°03'4 8.2
2018-Jun-09 17:00N 25°59' W 080°01'5 9.4
2018-Jun-09 16:30N 26°04' W 079°59'3 5.5
2018-Jun-09 16:00N 26°06' W 080°01'5 4.5
2018-Jun-09 14:52N 26°07' W 080°06'0 0.0
2018-Jun-09 14:25N 26°07' W 080°06'0 0.0
2018-Jun-09 13:55N 26°07' W 080°06'0 0.0
2018-Jun-09 13:25N 26°07' W 080°06'0 0.0
2018-Jun-09 12:55N 26°07' W 080°06'0 0.0
2018-Jun-09 12:25N 26°07' W 080°06'0 0.0
2018-Jun-09 11:55N 26°07' W 080°06'0 0.0
2018-Jun-09 11:28N 26°07' W 080°06'0 0.0
2018-Jun-09 10:58N 26°07' W 080°06'0 0.0
2018-Jun-09 10:28N 26°07' W 080°06'0 0.0
2018-Jun-09 09:58N 26°07' W 080°06'0 0.0
2018-Jun-09 09:28N 26°07' W 080°06'0 0.0
2018-Jun-09 08:58N 26°07' W 080°06'0 0.0
2018-Jun-09 08:28N 26°07' W 080°06'0 0.0
2018-Jun-09 07:58N 26°07' W 080°06'0 0.0
2018-Jun-09 07:28N 26°07' W 080°06'0 0.0
2018-Jun-09 06:58N 26°07' W 080°06'0 0.0
2018-Jun-09 06:16N 26°07' W 080°06'0 0.0
2018-Jun-09 05:58N 26°07' W 080°06'0 0.0
2018-Jun-09 05:28N 26°07' W 080°06'0 0.0
2018-Jun-09 04:58N 26°07' W 080°06'0 0.0
2018-Jun-09 04:19N 26°07' W 080°06'0 0.0
2018-Jun-09 03:49N 26°07' W 080°06'0 0.0
2018-Jun-09 03:19N 26°07' W 080°06'0 0.0
2018-Jun-09 02:52N 26°07' W 080°06'0 0.0
2018-Jun-09 02:22N 26°07' W 080°06'0 0.0
2018-Jun-09 01:52N 26°07' W 080°06'0 0.0
2018-Jun-09 01:22N 26°07' W 080°06'0 0.0
2018-Jun-09 00:52N 26°07' W 080°06'0 0.0
2018-Jun-09 00:22N 26°07' W 080°06'0 0.0
2018-Jun-08 23:55N 26°07' W 080°06'0 0.0
2018-Jun-08 23:25N 26°07' W 080°06'0 0.0
2018-Jun-08 22:55N 26°07' W 080°06'0 0.0
2018-Jun-08 22:25N 26°07' W 080°06'0 0.0
2018-Jun-08 21:55N 26°07' W 080°06'0 0.0
2018-Jun-08 21:28N 26°07' W 080°06'0 0.0
2018-Jun-08 20:52N 26°07' W 080°06'0 0.0
2018-Jun-08 20:28N 26°07' W 080°06'0 0.0
2018-Jun-08 19:58N 26°07' W 080°06'0 0.0
2018-Jun-08 19:28N 26°07' W 080°06'0 0.0
2018-Jun-08 18:58N 26°07' W 080°06'0 0.0
2018-Jun-08 18:31N 26°07' W 080°06'0 0.0
2018-Jun-08 18:01N 26°07' W 080°06'0 0.0
2018-Jun-08 17:28N 26°07' W 080°06'0 0.0
2018-Jun-08 17:01N 26°07' W 080°06'0 0.0
2018-Jun-08 16:31N 26°07' W 080°06'0 0.0
2018-Jun-08 16:01N 26°07' W 080°06'0 0.0
2018-Jun-08 15:28N 26°07' W 080°06'  
Track history (hours):
 
Tides and Currents Weather Stations Pressure Air Temp Water Temp Dewpoint Dewpoint Depression Visibility Wind Speed Wind Dir Waves Ship Positions

Tranquility

Last reported at 2018-Jun-09 19:47 UTC. Time now 2018-Jun-19 18:02 UTC.
Position N 25°29' W 080°09'.
Warning: this ship's position is 9 days out of date.

Length 40 m; draft 2.5 m.

Type: Pleasure craft. MMSI: 336377000.

Date/timePositionNaut miles runAvg speedWind from/ knotsBaromVisibWave heightAir tempDewpointWater temp
2018-Jun-09 19:47N 25°29' W 080°09'311.4
2018-Jun-09 19:30N 25°32' W 080°08'612.2
2018-Jun-09 19:00N 25°38' W 080°07'613.1
2018-Jun-09 18:30N 25°44' W 080°05'611.8
2018-Jun-09 18:01N 25°50' W 080°05'510.8
2018-Jun-09 17:30N 25°56' W 080°03'4 8.2
2018-Jun-09 17:00N 25°59' W 080°01'5 9.4
2018-Jun-09 16:30N 26°04' W 079°59'3 5.5
2018-Jun-09 16:00N 26°06' W 080°01'5 4.5
2018-Jun-09 14:52N 26°07' W 080°06'0 0.0
2018-Jun-09 14:25N 26°07' W 080°06'0 0.0
2018-Jun-09 13:55N 26°07' W 080°06'0 0.0
2018-Jun-09 13:25N 26°07' W 080°06'0 0.0
2018-Jun-09 12:55N 26°07' W 080°06'0 0.0
2018-Jun-09 12:25N 26°07' W 080°06'0 0.0
2018-Jun-09 11:55N 26°07' W 080°06'0 0.0
2018-Jun-09 11:28N 26°07' W 080°06'0 0.0
2018-Jun-09 10:58N 26°07' W 080°06'0 0.0
2018-Jun-09 10:28N 26°07' W 080°06'0 0.0
2018-Jun-09 09:58N 26°07' W 080°06'0 0.0
2018-Jun-09 09:28N 26°07' W 080°06'0 0.0
2018-Jun-09 08:58N 26°07' W 080°06'0 0.0
2018-Jun-09 08:28N 26°07' W 080°06'0 0.0
2018-Jun-09 07:58N 26°07' W 080°06'0 0.0
2018-Jun-09 07:28N 26°07' W 080°06'0 0.0
2018-Jun-09 06:58N 26°07' W 080°06'0 0.0
2018-Jun-09 06:16N 26°07' W 080°06'0 0.0
2018-Jun-09 05:58N 26°07' W 080°06'0 0.0
2018-Jun-09 05:28N 26°07' W 080°06'0 0.0
2018-Jun-09 04:58N 26°07' W 080°06'0 0.0
2018-Jun-09 04:19N 26°07' W 080°06'0 0.0
2018-Jun-09 03:49N 26°07' W 080°06'0 0.0
2018-Jun-09 03:19N 26°07' W 080°06'0 0.0
2018-Jun-09 02:52N 26°07' W 080°06'0 0.0
2018-Jun-09 02:22N 26°07' W 080°06'0 0.0
2018-Jun-09 01:52N 26°07' W 080°06'0 0.0
2018-Jun-09 01:22N 26°07' W 080°06'0 0.0
2018-Jun-09 00:52N 26°07' W 080°06'0 0.0
2018-Jun-09 00:22N 26°07' W 080°06'0 0.0
2018-Jun-08 23:55N 26°07' W 080°06'0 0.0
2018-Jun-08 23:25N 26°07' W 080°06'0 0.0
2018-Jun-08 22:55N 26°07' W 080°06'0 0.0
2018-Jun-08 22:25N 26°07' W 080°06'0 0.0
2018-Jun-08 21:55N 26°07' W 080°06'0 0.0
2018-Jun-08 21:28N 26°07' W 080°06'0 0.0
2018-Jun-08 20:52N 26°07' W 080°06'0 0.0
2018-Jun-08 20:28N 26°07' W 080°06'0 0.0
2018-Jun-08 19:58N 26°07' W 080°06'0 0.0
2018-Jun-08 19:28N 26°07' W 080°06'0 0.0
2018-Jun-08 18:58N 26°07' W 080°06'0 0.0
2018-Jun-08 18:31N 26°07' W 080°06'0 0.0
2018-Jun-08 18:01N 26°07' W 080°06'0 0.0
2018-Jun-08 17:28N 26°07' W 080°06'0 0.0
2018-Jun-08 17:01N 26°07' W 080°06'0 0.0
2018-Jun-08 16:31N 26°07' W 080°06'0 0.0
2018-Jun-08 16:01N 26°07' W 080°06'0 0.0
2018-Jun-08 15:28N 26°07' W 080°06'  

Dump ship's entire track history